Latest Weather Observations for Oodnadatta

IDS60801

Issued at 4:01 pm CDT Monday 8 February 2016 (issued every 30 minutes, with the page automatically refreshed every 10 minutes)

About weather observations | Map of weather stations | Latest weather observations for SA | Other Formats
Station Details ID: 017043 Name: OODNADATTA AIRPORT Lat: -27.56 Lon: 135.45 Height: 116.5 m
Data from the previous 72 hours. | See also: Recent months at Oodnadatta
Date/Time
CDT
Temp
°C
App
Temp
°C
Dew
Point
Rel
Hum
%
Delta-T
°C
Wind Press
QNH
hPa
Press
MSL
hPa
Rain
since 9 am
mm
Dir
 
Spd
km/h
Gust
km/h
Spd
kts
Gust
kts
08/04:00pm 39.2 32.1 3.4 11 19.2 ESE 30 44 16 24 1012.7 1011.9 0.0
08/03:33pm 38.8 32.0 3.1 11 19.0 SE 28 46 15 25 1013.2 1012.4 0.0
08/03:30pm 39.7 32.2 3.7 11 19.4 SE 32 44 17 24 1013.1 1012.3 0.0
08/03:00pm 39.3 31.8 3.4 11 19.3 SE 32 41 17 22 1013.7 1012.9 0.0
08/02:43pm 38.4 31.5 2.8 11 18.8 ESE 28 46 15 25 1014.0 1013.2 0.0
08/02:30pm 37.9 31.2 3.6 12 18.3 SE 28 44 15 24 1014.2 1013.4 0.0
08/02:00pm 38.1 33.7 4.9 13 18.1 ESE 17 39 9 21 1014.5 1013.7 0.0
08/01:30pm 37.3 31.7 5.3 14 17.5 ESE 24 39 13 21 1015.1 1014.3 0.0
08/01:14pm 37.4 33.0 7.3 16 17.0 SE 20 54 11 29 1015.3 1014.5 0.0
08/01:00pm 37.1 32.5 8.0 17 16.6 SE 22 33 12 18 1015.6 1014.8 0.0
08/12:30pm 36.2 31.2 8.1 18 15.9 ESE 24 37 13 20 1016.2 1015.4 0.0
08/12:00pm 35.6 31.4 8.4 19 15.4 ESE 20 26 11 14 1016.5 1015.7 0.0
08/11:30am 34.7 30.9 9.9 22 14.3 SE 20 32 11 17 1016.8 1016.0 0.0
08/11:00am 33.0 28.8 9.7 24 13.4 SE 22 28 12 15 1016.9 1016.1 0.0
08/10:30am 32.7 28.6 10.1 25 13.0 SE 22 30 12 16 1016.9 1016.1 0.0
08/10:00am 31.5 27.5 9.1 25 12.6 SE 20 28 11 15 1017.0 1016.3 0.0
08/09:30am 30.5 27.4 8.8 26 12.1 SE 15 24 8 13 1016.9 1016.1 0.0
08/09:00am 28.3 25.8 6.4 25 11.6 S 9 13 5 7 1017.0 1016.3 0.0
08/08:30am 27.2 24.7 6.6 27 10.9 SSE 9 11 5 6 1016.7 1015.9 0.0
08/08:00am 25.5 23.3 6.2 29 10.0 S 7 9 4 5 1016.4 1015.6 0.0
08/07:30am 25.3 21.4 5.5 28 10.1 SSE 15 20 8 11 1016.2 1015.4 0.0
08/07:00am 24.4 21.3 7.1 33 9.1 S 13 17 7 9 1015.7 1014.9 0.0
08/06:30am 25.4 21.9 7.1 31 9.7 SE 15 20 8 11 1015.2 1014.4 0.0
08/06:00am 25.8 21.9 6.9 30 10.0 S 17 20 9 11 1014.9 1014.1 0.0
08/05:30am 25.4 22.5 8.0 33 9.3 S 13 17 7 9 1014.8 1014.0 0.0
08/05:00am 26.2 22.7 8.7 33 9.5 S 17 20 9 11 1014.5 1013.7 0.0
08/04:30am 26.2 24.7 10.4 37 8.9 SW 9 11 5 6 1014.4 1013.6 0.0
08/04:00am 26.8 25.0 10.9 37 9.0 S 11 17 6 9 1014.4 1013.6 0.0
08/03:30am 27.0 24.5 11.1 37 9.1 S 15 20 8 11 1014.4 1013.6 0.0
08/03:00am 26.6 24.0 10.7 37 9.0 SSW 15 20 8 11 1014.0 1013.2 0.0
08/02:30am 26.6 26.6 11.1 38 8.8 S 2 7 1 4 1014.0 1013.2 0.0
08/02:00am 27.1 26.6 10.8 36 9.3 ENE 4 7 2 4 1014.2 1013.4 0.0
08/01:30am 27.9 26.9 11.0 35 9.7 ENE 7 11 4 6 1014.3 1013.5 0.0
08/01:00am 28.1 28.0 10.8 34 9.9 E 2 6 1 3 1014.5 1013.7 0.0
08/12:30am 28.8 27.8 10.9 33 10.3 E 7 7 4 4 1014.6 1013.8 0.0
08/12:00am 29.4 28.0 11.0 32 10.6 E 9 13 5 7 1014.6 1013.8 0.0
 
Date/Time
CDT
Temp
°C
App
Temp
°C
Dew
Point
Rel
Hum
%
Delta-T
°C
Wind Press
QNH
hPa
Press
MSL
hPa
Rain
since 9 am
mm
Dir
 
Spd
km/h
Gust
km/h
Spd
kts
Gust
kts
07/11:30pm 30.8 28.7 11.2 30 11.4 E 13 17 7 9 1014.6 1013.8 0.0
07/11:00pm 31.7 28.9 11.5 29 11.8 E 17 19 9 10 1014.4 1013.6 0.0
07/10:30pm 32.5 29.1 11.1 27 12.5 E 20 24 11 13 1014.0 1013.2 0.0
07/10:00pm 33.1 29.3 11.0 26 12.9 E 22 32 12 17 1013.8 1013.0 0.0
07/09:30pm 33.6 28.2 9.6 23 13.8 E 28 33 15 18 1013.6 1012.8 0.0
07/09:00pm 34.1 27.5 8.7 21 14.4 E 33 46 18 25 1013.0 1012.2 0.0
07/08:30pm 34.7 28.8 7.7 19 15.1 E 28 35 15 19 1012.6 1011.8 0.0
07/08:00pm 35.7 29.1 7.7 18 15.8 E 32 39 17 21 1012.3 1011.5 0.0
07/07:30pm 36.4 30.1 7.4 17 16.3 ESE 30 39 16 21 1011.8 1011.0 0.0
07/07:00pm 37.3 31.4 7.3 16 16.9 ESE 28 41 15 22 1011.4 1010.6 0.0
07/06:30pm 37.8 32.2 8.6 17 16.8 ESE 28 41 15 22 1011.2 1010.4 0.0
07/06:00pm 37.5 32.8 9.2 18 16.4 ESE 24 33 13 18 1011.0 1010.2 0.0
07/05:30pm 37.5 32.4 9.2 18 16.4 SE 26 43 14 23 1011.2 1010.4 0.0
07/05:00pm 37.5 32.4 9.2 18 16.4 SE 26 37 14 20 1011.2 1010.4 0.0
07/04:30pm 37.3 32.1 9.0 18 16.4 SE 26 41 14 22 1011.3 1010.5 0.0
07/04:00pm 37.1 32.9 9.6 19 16.0 SE 22 37 12 20 1011.5 1010.7 0.0
07/03:30pm 37.5 32.4 9.2 18 16.4 SE 26 41 14 22 1011.8 1011.0 0.0
07/03:00pm 37.5 32.6 10.0 19 16.2 SE 26 41 14 22 1012.2 1011.4 0.0
07/02:30pm 37.4 32.1 9.9 19 16.1 SSE 28 44 15 24 1012.5 1011.7 0.0
07/02:26pm 36.8 32.3 10.2 20 15.6 SE 24 44 13 24 1012.3 1011.5 0.0
07/02:00pm 36.5 32.7 11.3 22 15.0 SSE 22 35 12 19 1012.8 1012.0 0.0
07/01:30pm 36.4 32.8 9.8 20 15.5 ESE 19 32 10 17 1013.2 1012.4 0.0
07/01:00pm 35.5 32.1 11.2 23 14.4 SE 20 30 11 16 1013.6 1012.8 0.0
07/12:30pm 34.2 32.3 14.1 29 12.4 SE 17 24 9 13 1013.9 1013.1 0.0
07/12:00pm 33.5 32.1 14.5 31 11.7 SE 15 30 8 16 1014.1 1013.3 0.0
07/11:30am 32.5 31.3 14.1 32 11.3 E 13 19 7 10 1014.3 1013.5 0.0
07/11:00am 31.4 30.2 12.7 32 11.2 SE 11 19 6 10 1014.4 1013.6 0.0
07/10:30am 31.0 28.5 10.9 29 11.6 SE 15 20 8 11 1014.3 1013.5 0.0
07/10:00am 29.8 26.3 8.8 27 11.7 SE 17 22 9 12 1014.4 1013.6 0.0
07/09:30am 28.0 24.0 6.7 26 11.3 SSE 17 20 9 11 1014.1 1013.3 0.0
07/09:00am 26.7 23.3 7.7 30 10.2 S 15 20 8 11 1013.9 1013.1 0.0
07/08:30am 25.0 21.5 8.9 36 8.8 S 17 20 9 11 1013.7 1012.9 0.0
07/08:00am 24.1 21.5 9.3 39 8.1 SSW 13 17 7 9 1013.3 1012.5 0.0
07/07:30am 22.8 20.9 9.2 42 7.3 S 9 13 5 7 1012.9 1012.1 0.0
07/07:00am 22.2 20.4 8.0 40 7.5 SSE 7 9 4 5 1012.7 1011.9 0.0
07/06:30am 23.2 20.4 8.5 39 7.9 S 13 17 7 9 1012.1 1011.3 0.0
07/06:00am 23.2 19.9 6.5 34 8.6 S 13 15 7 8 1011.8 1011.0 0.0
07/05:30am 22.8 18.9 3.4 28 9.4 SE 13 17 7 9 1011.7 1010.9 0.0
07/05:00am 24.2 19.6 3.5 26 10.2 SSE 17 20 9 11 1011.5 1010.7 0.0
07/04:30am 25.0 19.6 1.2 21 11.3 SSW 19 28 10 15 1010.9 1010.1 0.0
07/04:00am 22.9 20.1 3.4 28 9.5 SE 7 9 4 5 1010.7 1009.9 0.0
07/03:30am 24.6 21.2 3.8 26 10.3 S 11 13 6 7 1010.2 1009.5 0.0
07/03:00am 25.4 21.6 4.0 25 10.7 SSW 13 17 7 9 1010.1 1009.4 0.0
07/02:30am 25.8 22.3 5.4 27 10.5 SSW 13 17 7 9 1010.2 1009.5 0.0
07/02:00am 26.2 24.1 8.2 32 9.7 S 9 11 5 6 1010.2 1009.5 0.0
07/01:30am 26.4 23.9 8.4 32 9.8 S 11 13 6 7 1010.5 1009.7 0.0
07/01:00am 27.3 24.9 8.7 31 10.2 SSE 11 11 6 6 1010.6 1009.8 0.0
07/12:30am 27.9 25.5 8.7 30 10.6 SSE 11 15 6 8 1010.7 1009.9 0.0
07/12:00am 28.5 25.7 8.7 29 10.9 SSE 13 13 7 7 1010.8 1010.0 0.0
 
Date/Time
CDT
Temp
°C
App
Temp
°C
Dew
Point
Rel
Hum
%
Delta-T
°C
Wind Press
QNH
hPa
Press
MSL
hPa
Rain
since 9 am
mm
Dir
 
Spd
km/h
Gust
km/h
Spd
kts
Gust
kts
06/11:30pm 30.2 27.2 9.1 27 11.8 SE 15 17 8 9 1010.8 1010.0 0.0
06/11:00pm 30.1 26.8 7.9 25 12.2 SSE 15 17 8 9 1010.7 1009.9 0.0
06/10:30pm 30.7 27.5 8.4 25 12.4 ESE 15 17 8 9 1010.1 1009.4 0.0
06/10:00pm 31.1 28.2 8.2 24 12.7 ESE 13 15 7 8 1009.7 1009.0 0.0
06/09:30pm 32.7 29.1 8.2 22 13.7 ESE 17 20 9 11 1009.6 1008.9 0.0
06/09:00pm 33.7 29.9 9.0 22 14.1 ESE 19 24 10 13 1009.2 1008.4 0.0
06/08:30pm 34.5 29.7 9.0 21 14.6 SE 24 33 13 18 1008.7 1007.9 0.0
06/08:00pm 35.2 31.3 9.6 21 14.8 SE 20 28 11 15 1008.4 1007.6 0.0
06/07:30pm 35.6 30.5 9.2 20 15.2 SE 26 33 14 18 1008.1 1007.3 0.0
06/07:00pm 36.3 31.1 9.0 19 15.7 SE 26 35 14 19 1007.8 1007.0 0.0
06/06:30pm 36.1 30.5 8.8 19 15.7 SSE 28 35 15 19 1007.6 1006.8 0.0
06/06:00pm 35.7 31.2 8.5 19 15.5 SE 22 32 12 17 1007.5 1006.7 0.0
06/05:30pm 37.1 32.1 8.0 17 16.6 SE 24 35 13 19 1007.4 1006.6 0.0
06/05:00pm 37.2 32.2 8.1 17 16.6 SSE 24 37 13 20 1007.5 1006.7 0.0
06/04:30pm 37.5 31.8 6.5 15 17.3 SE 26 43 14 23 1007.6 1006.8 0.0
06/04:00pm 37.4 31.4 5.4 14 17.5 SE 26 37 14 20 1007.8 1007.0 0.0
06/03:30pm 36.9 32.0 5.0 14 17.4 SSE 20 32 11 17 1008.1 1007.3 0.0
06/03:13pm 36.5 30.0 4.7 14 17.1 SSE 28 46 15 25 1008.3 1007.5 0.0
06/03:00pm 36.4 30.8 5.6 15 16.9 SSE 24 39 13 21 1008.5 1007.7 0.0
06/02:30pm 36.0 29.4 6.2 16 16.4 SSE 30 48 16 26 1009.0 1008.2 0.0
06/02:23pm 36.5 30.6 5.7 15 16.9 SSE 26 48 14 26 1009.0 1008.2 0.0
06/02:21pm 36.1 29.7 5.4 15 16.7 SSE 28 48 15 26 1008.9 1008.1 0.0
06/02:00pm 36.0 30.2 6.2 16 16.4 S 26 39 14 21 1009.3 1008.6 0.0
06/01:30pm 35.9 30.1 6.2 16 16.4 SE 26 39 14 21 1009.6 1008.9 0.0
06/01:00pm 34.4 30.7 9.6 22 14.3 SE 19 35 10 19 1010.1 1009.4 0.0
06/12:30pm 34.2 29.7 10.1 23 14.0 SE 24 35 13 19 1010.6 1009.8 0.0
06/12:00pm 34.6 29.7 9.8 22 14.4 SE 26 37 14 20 1010.7 1009.9 0.0
06/11:30am 32.9 28.6 7.7 21 14.0 SE 20 30 11 16 1010.9 1010.1 0.0
06/11:00am 32.1 27.0 7.7 22 13.5 SSE 24 33 13 18 1011.0 1010.2 0.0
06/10:30am 30.1 24.9 7.3 24 12.4 SE 24 35 13 19 1011.0 1010.2 0.0
06/10:00am 28.3 23.5 7.5 27 11.2 SSE 22 30 12 16 1011.1 1010.3 0.0
06/09:30am 26.7 21.7 8.2 31 10.0 S 24 30 13 16 1010.9 1010.1 0.0
06/09:00am 25.9 19.7 8.0 32 9.6 S 30 35 16 19 1010.8 1010.0 0.0
06/08:30am 24.8 18.5 7.4 33 9.2 S 30 35 16 19 1010.5 1009.7 0.0
06/08:00am 24.0 18.0 7.2 34 8.8 S 28 33 15 18 1010.1 1009.4 0.0
06/07:30am 23.6 18.0 7.3 35 8.6 S 26 32 14 17 1009.8 1009.1 0.0
06/07:00am 23.4 17.8 7.1 35 8.5 S 26 30 14 16 1009.4 1008.7 0.0
06/06:30am 23.6 19.2 7.3 35 8.6 S 20 24 11 13 1009.2 1008.4 0.0
06/06:00am 24.1 20.2 7.3 34 8.8 S 17 20 9 11 1009.1 1008.3 0.0
06/05:30am 24.2 21.0 6.9 33 9.1 SSW 13 17 7 9 1008.9 1008.1 0.0
06/05:00am 24.8 21.6 7.0 32 9.3 S 13 17 7 9 1008.8 1008.0 0.0
06/04:30am 25.7 21.2 6.8 30 10.0 S 20 26 11 14 1008.6 1007.8 0.0
06/04:00am 26.1 21.3 7.2 30 10.0 S 22 28 12 15 1008.6 1007.8 0.0
06/03:30am 26.5 22.1 7.5 30 10.2 S 20 26 11 14 1008.8 1008.0 0.0
06/03:00am 27.0 21.5 7.5 29 10.5 S 26 35 14 19 1008.8 1008.0 0.0
06/02:30am 27.7 22.8 8.6 30 10.5 S 24 32 13 17 1008.8 1008.0 0.0
06/02:00am 28.6 23.4 8.8 29 11.0 S 26 32 14 17 1008.8 1008.0 0.0
06/01:30am 29.0 23.9 9.2 29 11.1 SSE 26 32 14 17 1009.0 1008.2 0.0
06/01:00am 29.5 24.0 9.1 28 11.4 S 28 35 15 19 1009.2 1008.4 0.0
06/12:30am 30.0 25.0 9.5 28 11.6 S 26 32 14 17 1009.5 1008.8 0.0
06/12:00am 30.2 26.0 9.7 28 11.6 S 22 28 12 15 1009.7 1009.0 0.0
 
Date/Time
CDT
Temp
°C
App
Temp
°C
Dew
Point
Rel
Hum
%
Delta-T
°C
Wind Press
QNH
hPa
Press
MSL
hPa
Rain
since 9 am
mm
Dir
 
Spd
km/h
Gust
km/h
Spd
kts
Gust
kts
05/11:30pm 30.1 26.9 10.1 29 11.4 S 17 20 9 11 1009.8 1009.1 0.0
05/11:00pm 30.0 27.2 10.0 29 11.4 S 15 17 8 9 1009.9 1009.2 0.0
05/10:30pm 30.7 27.8 9.6 27 12.0 S 15 17 8 9 1009.8 1009.1 0.0
05/10:00pm 31.5 27.9 9.7 26 12.4 S 19 24 10 13 1009.7 1009.0 0.0
05/09:30pm 31.7 27.8 9.3 25 12.7 S 20 24 11 13 1009.5 1008.8 0.0
05/09:00pm 31.9 27.2 9.4 25 12.8 S 24 30 13 16 1009.3 1008.6 0.0
05/08:30pm 32.4 26.5 9.2 24 13.2 S 30 39 16 21 1008.9 1008.1 0.0
05/08:00pm 32.7 26.9 9.5 24 13.2 S 30 39 16 21 1008.7 1007.9 0.0
05/07:30pm 33.2 27.0 9.3 23 13.6 S 32 43 17 23 1008.5 1007.7 0.0
05/07:00pm 33.4 28.2 8.8 22 13.9 S 26 35 14 19 1008.5 1007.7 0.0
05/06:30pm 33.4 27.8 8.8 22 14.0 SSE 28 43 15 23 1008.3 1007.5 0.0
05/06:00pm 33.7 29.3 9.0 22 14.1 S 22 33 12 18 1008.4 1007.6 0.0
05/05:30pm 32.8 27.1 8.3 22 13.7 S 28 46 15 25 1008.5 1007.7 0.0
05/05:22pm 34.0 28.4 8.6 21 14.4 S 28 46 15 25 1008.4 1007.6 0.0
05/05:00pm 34.6 29.7 8.4 20 14.8 SSE 24 39 13 21 1008.6 1007.8 0.0
05/04:30pm 33.2 26.9 7.2 20 14.4 S 30 41 16 22 1008.9 1008.1 0.0

Other Formats:

Comma delimited format used in spreadsheet applications
http://www.bom.gov.au/fwo/IDS60801/IDS60801.94476.axf

JavaScript Object Notation format (JSON) in row-major order
http://www.bom.gov.au/fwo/IDS60801/IDS60801.94476.json